WELCOME TO BirgenAir Virtual Airlines

 STATISTICS

Pilots 28
Aircraft in fleet 0
Routes 0
Total hours: 5161:49
Flights total 5213
Flights Regular 127
Flights Charter 5086
% Flights Regular 2.44 %

 IVAO

 Active Runways & Weather of LTBA

Kalkış Pisti

35R-L

İniş Pisti

05

LTBA 251120Z 01015KT 340V050 9999 SCT035 31/20 Q1015 NOSIG

 LATEST FLIGHTS

CallsignPilotDepartureArrivalDateFlight Time
BGN030Cüneyt Çetin  LTAT  LTCT 2019-06-25 01:15
BGN156Serdar Kesenci  LTBA  LTCC 2019-06-25 01:19
BGN001Umut Keskin  ULMM  LTAI 2019-06-25 04:04
BGN546Burak Yilmaz  LTBG  LTAI 2019-06-24 00:58
BGN262Can Uyanık  VHHH  LTFM 2019-06-23 09:45

 NEWEST PILOTS

 FUTURE EVENTS

EventDate

  Facebook

 TOP 5 PILOTS BY FLIGHTS

CallsignPilotFlights
BGN003Bülent ÇAĞLAR642
BGN001Umut Keskin527
BGN974Turgut Uyanık297
BGN002Murat Türkarslan264
BGN067Ceyhun Özbesler257

 News

TitleDate



Copyright © 2011 - 2018 BirgenAir Virtual Airlines. All rights reserved. Developed by Goktug Unver